sensor_id;sensor_type;location;lat;lon;timestamp;temperature;humidity
10270;DHT22;70826;50.930;5.334;2023-12-14T00:00:24;20.30;70.70
10270;DHT22;70826;50.930;5.334;2023-12-14T00:02:50;20.30;70.80
10270;DHT22;70826;50.930;5.334;2023-12-14T00:05:20;20.30;70.80
10270;DHT22;70826;50.930;5.334;2023-12-14T00:07:48;20.30;70.80
10270;DHT22;70826;50.930;5.334;2023-12-14T00:10:14;20.30;70.80
10270;DHT22;70826;50.930;5.334;2023-12-14T00:12:39;20.30;70.80
10270;DHT22;70826;50.930;5.334;2023-12-14T00:15:06;20.30;70.80
10270;DHT22;70826;50.930;5.334;2023-12-14T00:17:34;20.30;70.80
10270;DHT22;70826;50.930;5.334;2023-12-14T00:20:02;20.30;70.80
10270;DHT22;70826;50.930;5.334;2023-12-14T00:22:35;20.30;70.80
10270;DHT22;70826;50.930;5.334;2023-12-14T00:25:08;20.30;70.80
10270;DHT22;70826;50.930;5.334;2023-12-14T00:27:36;20.30;70.80
10270;DHT22;70826;50.930;5.334;2023-12-14T00:30:04;20.30;70.80
10270;DHT22;70826;50.930;5.334;2023-12-14T00:32:33;20.30;70.80
10270;DHT22;70826;50.930;5.334;2023-12-14T00:35:01;20.30;70.80
10270;DHT22;70826;50.930;5.334;2023-12-14T00:37:31;20.30;70.80
10270;DHT22;70826;50.930;5.334;2023-12-14T00:40:02;20.30;70.90
10270;DHT22;70826;50.930;5.334;2023-12-14T00:42:29;20.30;70.80
10270;DHT22;70826;50.930;5.334;2023-12-14T00:44:57;20.30;70.90
10270;DHT22;70826;50.930;5.334;2023-12-14T00:47:22;20.30;70.90
10270;DHT22;70826;50.930;5.334;2023-12-14T00:49:48;20.30;70.90
10270;DHT22;70826;50.930;5.334;2023-12-14T00:52:16;20.30;70.90
10270;DHT22;70826;50.930;5.334;2023-12-14T00:54:44;20.30;70.90
10270;DHT22;70826;50.930;5.334;2023-12-14T00:57:09;20.30;70.90
10270;DHT22;70826;50.930;5.334;2023-12-14T00:59:40;20.30;70.90
10270;DHT22;70826;50.930;5.334;2023-12-14T01:02:08;20.30;70.90
10270;DHT22;70826;50.930;5.334;2023-12-14T01:04:36;20.30;70.90
10270;DHT22;70826;50.930;5.334;2023-12-14T01:07:04;20.30;70.90
10270;DHT22;70826;50.930;5.334;2023-12-14T01:09:34;20.30;70.90
10270;DHT22;70826;50.930;5.334;2023-12-14T01:12:02;20.30;70.90
10270;DHT22;70826;50.930;5.334;2023-12-14T01:14:28;20.30;70.90
10270;DHT22;70826;50.930;5.334;2023-12-14T01:16:56;20.30;70.90
10270;DHT22;70826;50.930;5.334;2023-12-14T01:19:29;20.30;70.90
10270;DHT22;70826;50.930;5.334;2023-12-14T01:21:54;20.30;70.90
10270;DHT22;70826;50.930;5.334;2023-12-14T01:24:23;20.30;70.90
10270;DHT22;70826;50.930;5.334;2023-12-14T01:26:48;20.30;71.00
10270;DHT22;70826;50.930;5.334;2023-12-14T01:29:14;20.30;70.90
10270;DHT22;70826;50.930;5.334;2023-12-14T01:31:40;20.30;70.90
10270;DHT22;70826;50.930;5.334;2023-12-14T01:34:08;20.30;70.90
10270;DHT22;70826;50.930;5.334;2023-12-14T01:36:37;20.30;70.90
10270;DHT22;70826;50.930;5.334;2023-12-14T01:39:08;20.30;70.90
10270;DHT22;70826;50.930;5.334;2023-12-14T01:41:33;20.30;70.90
10270;DHT22;70826;50.930;5.334;2023-12-14T01:44:04;20.30;70.90
10270;DHT22;70826;50.930;5.334;2023-12-14T01:46:32;20.30;71.50
10270;DHT22;70826;50.930;5.334;2023-12-14T01:49:00;20.30;70.90
10270;DHT22;70826;50.930;5.334;2023-12-14T01:51:28;20.30;70.80
10270;DHT22;70826;50.930;5.334;2023-12-14T01:53:56;20.30;70.90
10270;DHT22;70826;50.930;5.334;2023-12-14T01:56:22;20.30;70.90
10270;DHT22;70826;50.930;5.334;2023-12-14T01:58:47;20.40;70.90
10270;DHT22;70826;50.930;5.334;2023-12-14T02:03:59;20.30;70.90
10270;DHT22;70826;50.930;5.334;2023-12-14T02:06:29;20.30;70.90
10270;DHT22;70826;50.930;5.334;2023-12-14T02:08:54;20.30;70.90
10270;DHT22;70826;50.930;5.334;2023-12-14T02:11:22;20.30;70.90
10270;DHT22;70826;50.930;5.334;2023-12-14T02:13:53;20.30;70.90
10270;DHT22;70826;50.930;5.334;2023-12-14T02:16:19;20.30;70.90
10270;DHT22;70826;50.930;5.334;2023-12-14T02:18:45;20.30;70.90
10270;DHT22;70826;50.930;5.334;2023-12-14T02:21:14;20.30;70.90
10270;DHT22;70826;50.930;5.334;2023-12-14T02:23:46;20.30;71.00
10270;DHT22;70826;50.930;5.334;2023-12-14T02:26:12;20.30;71.00
10270;DHT22;70826;50.930;5.334;2023-12-14T02:28:40;20.30;70.90
10270;DHT22;70826;50.930;5.334;2023-12-14T02:31:06;20.30;70.90
10270;DHT22;70826;50.930;5.334;2023-12-14T02:33:34;20.30;70.90
10270;DHT22;70826;50.930;5.334;2023-12-14T02:36:02;20.30;70.90
10270;DHT22;70826;50.930;5.334;2023-12-14T02:38:29;20.30;70.90
10270;DHT22;70826;50.930;5.334;2023-12-14T02:40:59;20.30;70.90
10270;DHT22;70826;50.930;5.334;2023-12-14T02:43:27;20.30;70.90
10270;DHT22;70826;50.930;5.334;2023-12-14T02:45:55;20.30;70.90
10270;DHT22;70826;50.930;5.334;2023-12-14T02:48:27;20.30;70.90
10270;DHT22;70826;50.930;5.334;2023-12-14T02:51:00;20.30;70.90
10270;DHT22;70826;50.930;5.334;2023-12-14T02:53:28;20.30;70.90
10270;DHT22;70826;50.930;5.334;2023-12-14T02:55:55;20.30;70.90
10270;DHT22;70826;50.930;5.334;2023-12-14T02:58:26;20.30;70.90
10270;DHT22;70826;50.930;5.334;2023-12-14T03:00:51;20.30;71.50
10270;DHT22;70826;50.930;5.334;2023-12-14T03:03:19;20.30;70.80
10270;DHT22;70826;50.930;5.334;2023-12-14T03:05:45;20.30;70.80
10270;DHT22;70826;50.930;5.334;2023-12-14T03:08:13;20.30;70.80
10270;DHT22;70826;50.930;5.334;2023-12-14T03:10:41;20.30;70.80
10270;DHT22;70826;50.930;5.334;2023-12-14T03:13:06;20.30;70.80
10270;DHT22;70826;50.930;5.334;2023-12-14T03:15:39;20.30;70.80
10270;DHT22;70826;50.930;5.334;2023-12-14T03:18:12;20.30;70.80
10270;DHT22;70826;50.930;5.334;2023-12-14T03:20:37;20.30;71.40
10270;DHT22;70826;50.930;5.334;2023-12-14T03:23:08;20.30;70.70
10270;DHT22;70826;50.930;5.334;2023-12-14T03:25:36;20.30;70.70
10270;DHT22;70826;50.930;5.334;2023-12-14T03:28:04;20.30;70.70
10270;DHT22;70826;50.930;5.334;2023-12-14T03:30:32;20.30;70.70
10270;DHT22;70826;50.930;5.334;2023-12-14T03:32:58;20.30;70.60
10270;DHT22;70826;50.930;5.334;2023-12-14T03:35:26;20.30;70.60
10270;DHT22;70826;50.930;5.334;2023-12-14T03:37:51;20.30;70.60
10270;DHT22;70826;50.930;5.334;2023-12-14T03:40:19;20.30;70.60
10270;DHT22;70826;50.930;5.334;2023-12-14T03:42:48;20.30;70.60
10270;DHT22;70826;50.930;5.334;2023-12-14T03:45:15;20.30;70.60
10270;DHT22;70826;50.930;5.334;2023-12-14T03:47:47;20.30;70.50
10270;DHT22;70826;50.930;5.334;2023-12-14T03:50:12;20.30;70.50
10270;DHT22;70826;50.930;5.334;2023-12-14T03:52:38;20.30;70.50
10270;DHT22;70826;50.930;5.334;2023-12-14T03:55:07;20.30;70.50
10270;DHT22;70826;50.930;5.334;2023-12-14T03:57:33;20.30;70.50
10270;DHT22;70826;50.930;5.334;2023-12-14T04:00:02;20.30;70.50
10270;DHT22;70826;50.930;5.334;2023-12-14T04:02:30;20.30;70.40
10270;DHT22;70826;50.930;5.334;2023-12-14T04:04:56;20.30;70.40
10270;DHT22;70826;50.930;5.334;2023-12-14T04:07:21;20.30;70.40
10270;DHT22;70826;50.930;5.334;2023-12-14T04:09:50;20.30;70.40
10270;DHT22;70826;50.930;5.334;2023-12-14T04:12:18;20.30;70.40
10270;DHT22;70826;50.930;5.334;2023-12-14T04:14:48;20.30;70.30
10270;DHT22;70826;50.930;5.334;2023-12-14T04:17:16;20.30;70.30
10270;DHT22;70826;50.930;5.334;2023-12-14T04:19:42;20.30;70.30
10270;DHT22;70826;50.930;5.334;2023-12-14T04:22:07;20.30;70.20
10270;DHT22;70826;50.930;5.334;2023-12-14T04:24:36;20.30;70.20
10270;DHT22;70826;50.930;5.334;2023-12-14T04:27:01;20.30;70.20
10270;DHT22;70826;50.930;5.334;2023-12-14T04:29:27;20.30;70.20
10270;DHT22;70826;50.930;5.334;2023-12-14T04:31:53;20.30;70.20
10270;DHT22;70826;50.930;5.334;2023-12-14T04:34:21;20.30;70.20
10270;DHT22;70826;50.930;5.334;2023-12-14T04:36:47;20.30;70.20
10270;DHT22;70826;50.930;5.334;2023-12-14T04:39:17;20.30;70.20
10270;DHT22;70826;50.930;5.334;2023-12-14T04:41:47;20.30;70.20
10270;DHT22;70826;50.930;5.334;2023-12-14T04:44:20;20.30;70.20
10270;DHT22;70826;50.930;5.334;2023-12-14T04:46:48;20.30;70.10
10270;DHT22;70826;50.930;5.334;2023-12-14T04:49:18;20.30;70.10
10270;DHT22;70826;50.930;5.334;2023-12-14T04:51:48;20.30;70.10
10270;DHT22;70826;50.930;5.334;2023-12-14T04:54:16;20.30;70.00
10270;DHT22;70826;50.930;5.334;2023-12-14T04:56:45;20.30;70.00
10270;DHT22;70826;50.930;5.334;2023-12-14T04:59:11;20.30;70.00
10270;DHT22;70826;50.930;5.334;2023-12-14T05:01:37;20.30;69.90
10270;DHT22;70826;50.930;5.334;2023-12-14T05:04:07;20.30;69.90
10270;DHT22;70826;50.930;5.334;2023-12-14T05:06:33;20.30;69.90
10270;DHT22;70826;50.930;5.334;2023-12-14T05:09:02;20.30;69.80
10270;DHT22;70826;50.930;5.334;2023-12-14T05:11:33;20.30;69.80
10270;DHT22;70826;50.930;5.334;2023-12-14T05:14:03;20.30;69.80
10270;DHT22;70826;50.930;5.334;2023-12-14T05:16:30;20.30;69.80
10270;DHT22;70826;50.930;5.334;2023-12-14T05:18:59;20.30;69.70
10270;DHT22;70826;50.930;5.334;2023-12-14T05:21:27;20.30;69.70
10270;DHT22;70826;50.930;5.334;2023-12-14T05:23:57;20.30;69.70
10270;DHT22;70826;50.930;5.334;2023-12-14T05:26:25;20.30;69.60
10270;DHT22;70826;50.930;5.334;2023-12-14T05:28:53;20.30;69.60
10270;DHT22;70826;50.930;5.334;2023-12-14T05:31:19;20.30;69.60
10270;DHT22;70826;50.930;5.334;2023-12-14T05:33:47;20.30;69.60
10270;DHT22;70826;50.930;5.334;2023-12-14T05:36:15;20.30;69.60
10270;DHT22;70826;50.930;5.334;2023-12-14T05:38:43;20.30;69.50
10270;DHT22;70826;50.930;5.334;2023-12-14T05:41:15;20.30;69.50
10270;DHT22;70826;50.930;5.334;2023-12-14T05:43:41;20.30;69.50
10270;DHT22;70826;50.930;5.334;2023-12-14T05:46:12;20.30;69.50
10270;DHT22;70826;50.930;5.334;2023-12-14T05:48:49;20.30;69.50
10270;DHT22;70826;50.930;5.334;2023-12-14T05:51:30;20.30;69.50
10270;DHT22;70826;50.930;5.334;2023-12-14T05:53:56;20.30;69.40
10270;DHT22;70826;50.930;5.334;2023-12-14T05:56:26;20.30;69.40
10270;DHT22;70826;50.930;5.334;2023-12-14T05:58:54;20.30;69.40
10270;DHT22;70826;50.930;5.334;2023-12-14T06:01:20;20.30;69.40
10270;DHT22;70826;50.930;5.334;2023-12-14T06:03:46;20.30;69.40
10270;DHT22;70826;50.930;5.334;2023-12-14T06:06:14;20.30;69.40
10270;DHT22;70826;50.930;5.334;2023-12-14T06:08:42;20.30;69.40
10270;DHT22;70826;50.930;5.334;2023-12-14T06:11:08;20.30;69.40
10270;DHT22;70826;50.930;5.334;2023-12-14T06:13:38;20.30;69.40
10270;DHT22;70826;50.930;5.334;2023-12-14T06:16:10;20.30;69.30
10270;DHT22;70826;50.930;5.334;2023-12-14T06:18:40;20.30;69.30
10270;DHT22;70826;50.930;5.334;2023-12-14T06:21:11;20.30;69.30
10270;DHT22;70826;50.930;5.334;2023-12-14T06:23:39;20.30;69.20
10270;DHT22;70826;50.930;5.334;2023-12-14T06:26:05;20.30;69.20
10270;DHT22;70826;50.930;5.334;2023-12-14T06:28:35;20.30;69.20
10270;DHT22;70826;50.930;5.334;2023-12-14T06:31:01;20.30;69.20
10270;DHT22;70826;50.930;5.334;2023-12-14T06:33:29;20.30;69.20
10270;DHT22;70826;50.930;5.334;2023-12-14T06:35:54;20.30;69.20
10270;DHT22;70826;50.930;5.334;2023-12-14T06:38:22;20.30;69.20
10270;DHT22;70826;50.930;5.334;2023-12-14T06:40:48;20.30;69.20
10270;DHT22;70826;50.930;5.334;2023-12-14T06:43:19;20.30;69.10
10270;DHT22;70826;50.930;5.334;2023-12-14T06:45:47;20.30;69.10
10270;DHT22;70826;50.930;5.334;2023-12-14T06:48:17;20.30;69.10
10270;DHT22;70826;50.930;5.334;2023-12-14T06:50:45;20.30;69.10
10270;DHT22;70826;50.930;5.334;2023-12-14T06:53:11;20.30;69.10
10270;DHT22;70826;50.930;5.334;2023-12-14T06:55:38;20.30;69.70
10270;DHT22;70826;50.930;5.334;2023-12-14T06:58:07;20.30;69.00
10270;DHT22;70826;50.930;5.334;2023-12-14T07:00:39;20.30;69.00
10270;DHT22;70826;50.930;5.334;2023-12-14T07:03:07;20.30;69.00
10270;DHT22;70826;50.930;5.334;2023-12-14T07:05:38;20.30;69.00
10270;DHT22;70826;50.930;5.334;2023-12-14T07:08:06;20.30;69.00
10270;DHT22;70826;50.930;5.334;2023-12-14T07:10:35;20.30;69.00
10270;DHT22;70826;50.930;5.334;2023-12-14T07:13:03;20.30;68.90
10270;DHT22;70826;50.930;5.334;2023-12-14T07:15:29;20.30;68.90
10270;DHT22;70826;50.930;5.334;2023-12-14T07:17:57;20.30;68.90
10270;DHT22;70826;50.930;5.334;2023-12-14T07:20:25;20.30;68.90
10270;DHT22;70826;50.930;5.334;2023-12-14T07:22:53;20.30;68.90
10270;DHT22;70826;50.930;5.334;2023-12-14T07:25:18;20.30;68.90
10270;DHT22;70826;50.930;5.334;2023-12-14T07:27:46;20.30;68.90
10270;DHT22;70826;50.930;5.334;2023-12-14T07:30:13;20.30;68.90
10270;DHT22;70826;50.930;5.334;2023-12-14T07:32:39;20.30;68.90
10270;DHT22;70826;50.930;5.334;2023-12-14T07:35:09;20.30;68.90
10270;DHT22;70826;50.930;5.334;2023-12-14T07:37:35;20.30;68.90
10270;DHT22;70826;50.930;5.334;2023-12-14T07:40:01;20.30;68.90
10270;DHT22;70826;50.930;5.334;2023-12-14T07:42:30;20.30;68.90
10270;DHT22;70826;50.930;5.334;2023-12-14T07:44:59;20.30;68.90
10270;DHT22;70826;50.930;5.334;2023-12-14T07:47:29;20.30;68.90
10270;DHT22;70826;50.930;5.334;2023-12-14T07:49:55;20.30;68.90
10270;DHT22;70826;50.930;5.334;2023-12-14T07:52:22;20.30;68.90
10270;DHT22;70826;50.930;5.334;2023-12-14T07:54:50;20.30;68.90
10270;DHT22;70826;50.930;5.334;2023-12-14T07:57:18;20.30;68.80
10270;DHT22;70826;50.930;5.334;2023-12-14T07:59:46;20.30;68.80
10270;DHT22;70826;50.930;5.334;2023-12-14T08:02:12;20.30;68.80
10270;DHT22;70826;50.930;5.334;2023-12-14T08:04:40;20.30;68.80
10270;DHT22;70826;50.930;5.334;2023-12-14T08:07:05;20.30;68.80
10270;DHT22;70826;50.930;5.334;2023-12-14T08:09:32;20.30;68.80
10270;DHT22;70826;50.930;5.334;2023-12-14T08:11:57;20.30;68.80
10270;DHT22;70826;50.930;5.334;2023-12-14T08:14:23;20.30;68.70
10270;DHT22;70826;50.930;5.334;2023-12-14T08:16:49;20.30;68.80
10270;DHT22;70826;50.930;5.334;2023-12-14T08:19:19;20.30;68.80
10270;DHT22;70826;50.930;5.334;2023-12-14T08:21:47;20.30;68.70
10270;DHT22;70826;50.930;5.334;2023-12-14T08:24:15;20.30;68.70
10270;DHT22;70826;50.930;5.334;2023-12-14T08:26:43;20.30;68.70
10270;DHT22;70826;50.930;5.334;2023-12-14T08:29:09;20.30;68.70
10270;DHT22;70826;50.930;5.334;2023-12-14T08:31:35;20.30;68.80
10270;DHT22;70826;50.930;5.334;2023-12-14T08:34:05;20.30;69.10
10270;DHT22;70826;50.930;5.334;2023-12-14T08:36:31;20.30;69.20
10270;DHT22;70826;50.930;5.334;2023-12-14T08:38:57;20.30;69.20
10270;DHT22;70826;50.930;5.334;2023-12-14T08:41:23;20.30;69.10
10270;DHT22;70826;50.930;5.334;2023-12-14T08:43:49;20.30;69.10
10270;DHT22;70826;50.930;5.334;2023-12-14T08:46:15;20.40;69.20
10270;DHT22;70826;50.930;5.334;2023-12-14T08:48:40;20.40;69.30
10270;DHT22;70826;50.930;5.334;2023-12-14T08:51:06;20.40;69.40
10270;DHT22;70826;50.930;5.334;2023-12-14T08:53:34;20.50;69.60
10270;DHT22;70826;50.930;5.334;2023-12-14T08:56:00;20.40;69.80
10270;DHT22;70826;50.930;5.334;2023-12-14T08:58:28;20.50;70.00
10270;DHT22;70826;50.930;5.334;2023-12-14T09:00:54;20.40;70.30
10270;DHT22;70826;50.930;5.334;2023-12-14T09:03:20;20.30;70.60
10270;DHT22;70826;50.930;5.334;2023-12-14T09:05:48;20.30;70.80
10270;DHT22;70826;50.930;5.334;2023-12-14T09:08:16;20.30;70.90
10270;DHT22;70826;50.930;5.334;2023-12-14T09:10:46;20.30;71.00
10270;DHT22;70826;50.930;5.334;2023-12-14T09:13:12;20.30;71.10
10270;DHT22;70826;50.930;5.334;2023-12-14T09:15:42;20.30;71.20
10270;DHT22;70826;50.930;5.334;2023-12-14T09:18:07;20.40;71.20
10270;DHT22;70826;50.930;5.334;2023-12-14T09:20:35;20.50;70.90
10270;DHT22;70826;50.930;5.334;2023-12-14T09:23:02;20.60;70.70
10270;DHT22;70826;50.930;5.334;2023-12-14T09:25:28;20.70;70.70
10270;DHT22;70826;50.930;5.334;2023-12-14T09:27:56;20.70;70.80
10270;DHT22;70826;50.930;5.334;2023-12-14T09:30:22;20.70;70.90
10270;DHT22;70826;50.930;5.334;2023-12-14T09:32:52;20.60;70.90
10270;DHT22;70826;50.930;5.334;2023-12-14T09:35:20;20.70;71.00
10270;DHT22;70826;50.930;5.334;2023-12-14T09:37:48;20.70;71.00
10270;DHT22;70826;50.930;5.334;2023-12-14T09:40:17;20.70;70.90
10270;DHT22;70826;50.930;5.334;2023-12-14T09:42:44;20.70;70.90
10270;DHT22;70826;50.930;5.334;2023-12-14T09:45:15;20.70;70.90
10270;DHT22;70826;50.930;5.334;2023-12-14T09:47:48;20.80;70.80
10270;DHT22;70826;50.930;5.334;2023-12-14T09:50:17;21.00;70.60
10270;DHT22;70826;50.930;5.334;2023-12-14T09:52:44;21.00;70.50
10270;DHT22;70826;50.930;5.334;2023-12-14T09:55:11;21.10;70.40
10270;DHT22;70826;50.930;5.334;2023-12-14T09:57:37;21.10;70.30
10270;DHT22;70826;50.930;5.334;2023-12-14T10:00:08;21.20;70.30
10270;DHT22;70826;50.930;5.334;2023-12-14T10:02:43;21.20;70.20
10270;DHT22;70826;50.930;5.334;2023-12-14T10:05:13;21.20;70.20
10270;DHT22;70826;50.930;5.334;2023-12-14T10:07:41;21.20;70.10
10270;DHT22;70826;50.930;5.334;2023-12-14T10:10:13;21.20;70.10
10270;DHT22;70826;50.930;5.334;2023-12-14T10:15:18;21.20;70.00
10270;DHT22;70826;50.930;5.334;2023-12-14T10:17:51;21.30;69.90
10270;DHT22;70826;50.930;5.334;2023-12-14T10:20:21;21.40;69.60
10270;DHT22;70826;50.930;5.334;2023-12-14T10:22:54;21.40;69.30
10270;DHT22;70826;50.930;5.334;2023-12-14T10:25:23;21.50;69.20
10270;DHT22;70826;50.930;5.334;2023-12-14T10:27:52;21.50;68.90
10270;DHT22;70826;50.930;5.334;2023-12-14T10:30:20;21.50;68.80
10270;DHT22;70826;50.930;5.334;2023-12-14T10:32:47;21.50;68.70
10270;DHT22;70826;50.930;5.334;2023-12-14T10:35:14;21.50;68.50
10270;DHT22;70826;50.930;5.334;2023-12-14T10:37:42;21.50;68.50
10270;DHT22;70826;50.930;5.334;2023-12-14T10:40:11;21.40;68.30
10270;DHT22;70826;50.930;5.334;2023-12-14T10:42:41;21.40;68.30
10270;DHT22;70826;50.930;5.334;2023-12-14T10:45:08;21.40;68.20
10270;DHT22;70826;50.930;5.334;2023-12-14T10:47:39;21.40;68.10
10270;DHT22;70826;50.930;5.334;2023-12-14T10:50:05;21.40;68.00
10270;DHT22;70826;50.930;5.334;2023-12-14T10:52:32;21.40;67.90
10270;DHT22;70826;50.930;5.334;2023-12-14T10:55:27;21.40;67.90
10270;DHT22;70826;50.930;5.334;2023-12-14T10:57:53;21.30;67.80
10270;DHT22;70826;50.930;5.334;2023-12-14T11:00:19;21.30;67.80
10270;DHT22;70826;50.930;5.334;2023-12-14T11:02:46;21.30;67.70
10270;DHT22;70826;50.930;5.334;2023-12-14T11:05:13;21.30;67.70
10270;DHT22;70826;50.930;5.334;2023-12-14T11:07:52;21.30;67.60
10270;DHT22;70826;50.930;5.334;2023-12-14T11:10:24;21.20;67.50
10270;DHT22;70826;50.930;5.334;2023-12-14T11:13:01;21.20;67.50
10270;DHT22;70826;50.930;5.334;2023-12-14T11:15:34;21.20;67.50
10270;DHT22;70826;50.930;5.334;2023-12-14T11:25:54;21.10;67.40
10270;DHT22;70826;50.930;5.334;2023-12-14T11:28:22;21.10;67.40
10270;DHT22;70826;50.930;5.334;2023-12-14T11:30:48;21.00;67.30
10270;DHT22;70826;50.930;5.334;2023-12-14T11:33:14;21.00;67.30
10270;DHT22;70826;50.930;5.334;2023-12-14T11:35:41;21.00;67.30
10270;DHT22;70826;50.930;5.334;2023-12-14T11:38:06;21.00;67.30
10270;DHT22;70826;50.930;5.334;2023-12-14T11:40:44;21.00;67.30
10270;DHT22;70826;50.930;5.334;2023-12-14T11:43:09;21.00;67.20
10270;DHT22;70826;50.930;5.334;2023-12-14T11:45:38;20.90;67.20
10270;DHT22;70826;50.930;5.334;2023-12-14T11:48:09;20.90;67.20
10270;DHT22;70826;50.930;5.334;2023-12-14T11:50:36;20.90;67.20
10270;DHT22;70826;50.930;5.334;2023-12-14T11:53:03;20.90;67.10
10270;DHT22;70826;50.930;5.334;2023-12-14T11:55:31;20.90;67.10
10270;DHT22;70826;50.930;5.334;2023-12-14T11:58:02;20.90;67.10
10270;DHT22;70826;50.930;5.334;2023-12-14T12:00:29;20.90;67.10
10270;DHT22;70826;50.930;5.334;2023-12-14T12:03:18;20.90;67.10
10270;DHT22;70826;50.930;5.334;2023-12-14T12:05:51;20.80;67.00
10270;DHT22;70826;50.930;5.334;2023-12-14T12:08:19;20.90;67.00
10270;DHT22;70826;50.930;5.334;2023-12-14T12:10:46;20.80;66.90
10270;DHT22;70826;50.930;5.334;2023-12-14T12:13:21;20.80;66.90
10270;DHT22;70826;50.930;5.334;2023-12-14T12:15:47;20.80;67.00
10270;DHT22;70826;50.930;5.334;2023-12-14T12:18:15;20.80;67.00
10270;DHT22;70826;50.930;5.334;2023-12-14T12:20:46;20.80;67.00
10270;DHT22;70826;50.930;5.334;2023-12-14T12:23:14;20.80;67.00
10270;DHT22;70826;50.930;5.334;2023-12-14T12:25:41;20.80;67.00
10270;DHT22;70826;50.930;5.334;2023-12-14T12:28:09;20.80;67.00
10270;DHT22;70826;50.930;5.334;2023-12-14T12:30:40;20.80;66.90
10270;DHT22;70826;50.930;5.334;2023-12-14T12:33:05;20.70;66.90
10270;DHT22;70826;50.930;5.334;2023-12-14T12:35:34;20.80;66.90
10270;DHT22;70826;50.930;5.334;2023-12-14T12:38:04;20.70;66.80
10270;DHT22;70826;50.930;5.334;2023-12-14T12:40:30;20.70;66.80
10270;DHT22;70826;50.930;5.334;2023-12-14T12:42:59;20.70;66.80
10270;DHT22;70826;50.930;5.334;2023-12-14T12:45:30;20.70;66.80
10270;DHT22;70826;50.930;5.334;2023-12-14T12:47:59;20.70;66.80
10270;DHT22;70826;50.930;5.334;2023-12-14T12:50:27;20.70;67.00
10270;DHT22;70826;50.930;5.334;2023-12-14T12:52:56;20.60;67.30
10270;DHT22;70826;50.930;5.334;2023-12-14T12:55:21;20.60;67.70
10270;DHT22;70826;50.930;5.334;2023-12-14T12:57:51;20.50;67.60
10270;DHT22;70826;50.930;5.334;2023-12-14T13:00:19;20.50;67.80
10270;DHT22;70826;50.930;5.334;2023-12-14T13:02:45;20.60;67.90
10270;DHT22;70826;50.930;5.334;2023-12-14T13:05:11;20.70;67.90
10270;DHT22;70826;50.930;5.334;2023-12-14T13:07:44;20.70;68.00
10270;DHT22;70826;50.930;5.334;2023-12-14T13:10:10;20.60;68.10
10270;DHT22;70826;50.930;5.334;2023-12-14T13:12:38;20.60;68.20
10270;DHT22;70826;50.930;5.334;2023-12-14T13:15:03;20.70;68.00
10270;DHT22;70826;50.930;5.334;2023-12-14T13:17:30;20.80;68.00
10270;DHT22;70826;50.930;5.334;2023-12-14T13:19:58;20.80;67.80
10270;DHT22;70826;50.930;5.334;2023-12-14T13:22:24;20.80;67.70
10270;DHT22;70826;50.930;5.334;2023-12-14T13:24:49;20.90;67.60
10270;DHT22;70826;50.930;5.334;2023-12-14T13:27:15;20.90;67.40
10270;DHT22;70826;50.930;5.334;2023-12-14T13:29:41;20.90;67.30
10270;DHT22;70826;50.930;5.334;2023-12-14T13:32:06;21.00;67.30
10270;DHT22;70826;50.930;5.334;2023-12-14T13:34:32;21.00;67.20
10270;DHT22;70826;50.930;5.334;2023-12-14T13:36:58;21.00;67.10
10270;DHT22;70826;50.930;5.334;2023-12-14T13:39:26;21.00;67.00
10270;DHT22;70826;50.930;5.334;2023-12-14T13:41:52;21.00;67.00
10270;DHT22;70826;50.930;5.334;2023-12-14T13:44:18;21.00;66.90
10270;DHT22;70826;50.930;5.334;2023-12-14T13:46:43;21.00;66.90
10270;DHT22;70826;50.930;5.334;2023-12-14T13:49:13;21.00;66.80
10270;DHT22;70826;50.930;5.334;2023-12-14T13:51:42;21.00;67.40
10270;DHT22;70826;50.930;5.334;2023-12-14T13:54:10;21.00;66.70
10270;DHT22;70826;50.930;5.334;2023-12-14T13:56:38;21.00;66.70
10270;DHT22;70826;50.930;5.334;2023-12-14T13:59:05;21.00;66.60
10270;DHT22;70826;50.930;5.334;2023-12-14T14:01:31;21.00;66.60
10270;DHT22;70826;50.930;5.334;2023-12-14T14:03:57;21.00;66.60
10270;DHT22;70826;50.930;5.334;2023-12-14T14:06:22;20.90;66.50
10270;DHT22;70826;50.930;5.334;2023-12-14T14:08:50;20.90;66.40
10270;DHT22;70826;50.930;5.334;2023-12-14T14:11:20;20.90;66.40
10270;DHT22;70826;50.930;5.334;2023-12-14T14:13:46;20.90;66.40
10270;DHT22;70826;50.930;5.334;2023-12-14T14:16:14;20.90;66.40
10270;DHT22;70826;50.930;5.334;2023-12-14T14:18:39;20.90;66.40
10270;DHT22;70826;50.930;5.334;2023-12-14T14:21:06;20.90;66.40
10270;DHT22;70826;50.930;5.334;2023-12-14T14:23:34;20.90;66.40
10270;DHT22;70826;50.930;5.334;2023-12-14T14:26:02;20.90;66.40
10270;DHT22;70826;50.930;5.334;2023-12-14T14:28:30;20.90;66.30
10270;DHT22;70826;50.930;5.334;2023-12-14T14:30:58;20.80;66.30
10270;DHT22;70826;50.930;5.334;2023-12-14T14:33:26;20.80;66.30
10270;DHT22;70826;50.930;5.334;2023-12-14T14:35:52;20.80;66.30
10270;DHT22;70826;50.930;5.334;2023-12-14T14:38:18;20.80;66.30
10270;DHT22;70826;50.930;5.334;2023-12-14T14:40:44;20.80;66.30
10270;DHT22;70826;50.930;5.334;2023-12-14T14:43:13;20.80;66.30
10270;DHT22;70826;50.930;5.334;2023-12-14T14:45:43;20.80;66.30
10270;DHT22;70826;50.930;5.334;2023-12-14T14:48:12;20.80;66.20
10270;DHT22;70826;50.930;5.334;2023-12-14T14:50:37;20.80;66.90
10270;DHT22;70826;50.930;5.334;2023-12-14T14:53:07;20.80;66.30
10270;DHT22;70826;50.930;5.334;2023-12-14T14:55:33;20.80;66.30
10270;DHT22;70826;50.930;5.334;2023-12-14T14:58:00;20.80;66.20
10270;DHT22;70826;50.930;5.334;2023-12-14T15:00:28;20.80;66.30
10270;DHT22;70826;50.930;5.334;2023-12-14T15:02:55;20.70;66.20
10270;DHT22;70826;50.930;5.334;2023-12-14T15:05:23;20.70;66.20
10270;DHT22;70826;50.930;5.334;2023-12-14T15:07:49;20.70;66.20
10270;DHT22;70826;50.930;5.334;2023-12-14T15:10:17;20.70;66.20
10270;DHT22;70826;50.930;5.334;2023-12-14T15:12:45;20.70;66.20
10270;DHT22;70826;50.930;5.334;2023-12-14T15:15:15;20.70;66.20
10270;DHT22;70826;50.930;5.334;2023-12-14T15:17:43;20.70;66.20
10270;DHT22;70826;50.930;5.334;2023-12-14T15:20:09;20.70;66.20
10270;DHT22;70826;50.930;5.334;2023-12-14T15:22:37;20.70;66.20
10270;DHT22;70826;50.930;5.334;2023-12-14T15:25:05;20.70;66.20
10270;DHT22;70826;50.930;5.334;2023-12-14T15:27:36;20.70;66.20
10270;DHT22;70826;50.930;5.334;2023-12-14T15:30:03;20.70;66.20
10270;DHT22;70826;50.930;5.334;2023-12-14T15:32:30;20.70;66.30
10270;DHT22;70826;50.930;5.334;2023-12-14T15:34:58;20.70;66.30
10270;DHT22;70826;50.930;5.334;2023-12-14T15:37:26;20.70;66.30
10270;DHT22;70826;50.930;5.334;2023-12-14T15:39:52;20.60;66.20
10270;DHT22;70826;50.930;5.334;2023-12-14T15:42:19;20.60;66.30
10270;DHT22;70826;50.930;5.334;2023-12-14T15:44:47;20.60;66.30
10270;DHT22;70826;50.930;5.334;2023-12-14T15:47:12;20.60;66.30